This is the latest recevied weather packets stored in our database for station/object IU2EVW-13. If no packets are shown the sender has not sent any weather packets the latest 10 day(s).
| Time | Temp. | Humidity | Pressure | Rain* | Wind** | Luminosity | Snow |
|---|---|---|---|---|---|---|---|
| 1787930767 | 23.33° C | 64% | 1017.2 hPa | - | - | - | - |
| 1787929565 | 26.67° C | 58% | 1017.1 hPa | - | - | - | - |
| 1787928364 | 21.67° C | 71% | 1017.7 hPa | - | - | - | - |
| 1787927163 | 22.22° C | 61% | 1017.3 hPa | - | - | - | - |
| 1787925962 | 21.67° C | 63% | 1018.5 hPa | - | - | - | - |
| 1787924760 | 24.44° C | 59% | 1017.7 hPa | - | - | - | - |
| 1787923559 | 23.33° C | 57% | 1018.6 hPa | - | - | - | - |
| 1787922358 | 25° C | 55% | 1018.9 hPa | - | - | - | - |
| 1787921157 | 25° C | 52% | 1019.3 hPa | - | - | - | - |
| 1787919955 | 26.11° C | 47% | 1019.2 hPa | - | - | - | - |
| 1787918754 | 25° C | 53% | 1019.5 hPa | - | - | - | - |
| 1787917553 | 21.11° C | 77% | 1020.5 hPa | - | - | - | - |
| 1787916352 | 24.44° C | 63% | 1018.4 hPa | - | - | - | - |
| 1787915150 | 24.44° C | 64% | 1018.5 hPa | - | - | - | - |
| 1787913949 | 25.56° C | 64% | 1018.8 hPa | - | - | - | - |
| 1787912748 | 25° C | 63% | 1019.2 hPa | - | - | - | - |
| 1787911547 | 24.44° C | 62% | 1019.8 hPa | - | - | - | - |
| 1787910345 | 24.44° C | 64% | 1019.8 hPa | - | - | - | - |
| 1787909144 | 22.78° C | 68% | 1020.2 hPa | - | - | - | - |
| 1787907943 | 21.67° C | 76% | 1020 hPa | - | - | - | - |
| 1787906742 | 22.22° C | 75% | 1020.3 hPa | - | - | - | - |
| 1787905540 | 21.67° C | 79% | 1019.9 hPa | - | - | - | - |
| 1787904339 | 21.67° C | 83% | 1019.4 hPa | - | - | - | - |
| 1787903138 | 21.11° C | 84% | 1020.5 hPa | - | - | - | - |
| 1787901936 | 20° C | 84% | 1020.7 hPa | - | - | - | - |
* Rain since midnight (hover to see other rain measurements)
** Current wind speed in m/s (hover to see current wind gust speed)